Time;durP1;ratioP1;P1;durP2;ratioP2;P2;SDS_P1;SDS_P2;PMS_P1;PMS_P2;Temp;Humidity;BMP_temperature;BMP_pressure;BME280_temperature;BME280_humidity;BME280_pressure;Samples;Min_cycle;Max_cycle;Signal;HPM_P1;HPM_P2
2022/03/18 00:00:57;;;;;;;18.85;8.00;;;4.80;99.90;;;;;;4951779;29;20509;-76
2022/03/18 00:03:22;;;;;;;19.02;7.40;;;4.80;99.90;;;;;;4957270;28;20431;-76
2022/03/18 00:05:48;;;;;;;24.52;8.30;;;4.80;99.90;;;;;;4971836;28;20043;-76
2022/03/18 00:08:15;;;;;;;22.23;7.70;;;4.80;99.90;;;;;;4955865;29;20082;-76
2022/03/18 00:10:41;;;;;;;22.42;9.13;;;4.80;99.90;;;;;;4972725;28;20186;-76
2022/03/18 00:13:07;;;;;;;26.30;9.15;;;4.80;99.90;;;;;;4940148;29;20130;-76
2022/03/18 00:15:34;;;;;;;20.50;7.53;;;4.80;99.90;;;;;;4957930;28;20066;-75
2022/03/18 00:18:00;;;;;;;23.98;9.27;;;4.80;99.90;;;;;;4959383;28;20086;-75
2022/03/18 00:20:26;;;;;;;19.60;9.27;;;4.80;99.90;;;;;;4944800;29;20055;-76
2022/03/18 00:22:52;;;;;;;18.95;7.53;;;4.90;99.90;;;;;;4943194;29;20051;-77
2022/03/18 00:25:19;;;;;;;25.25;9.68;;;4.80;99.90;;;;;;4971460;28;20052;-77
2022/03/18 00:27:46;;;;;;;22.58;9.75;;;4.80;99.90;;;;;;4970975;28;20057;-76
2022/03/18 00:30:13;;;;;;;21.88;8.10;;;4.80;99.90;;;;;;4956548;28;20062;-75
2022/03/18 00:32:40;;;;;;;23.63;9.65;;;4.90;99.90;;;;;;4971512;28;20055;-77
2022/03/18 00:35:08;;;;;;;21.02;9.55;;;4.90;99.90;;;;;;4955230;29;20451;-78
2022/03/18 00:37:37;;;;;;;21.95;8.88;;;5.00;99.90;;;;;;4955302;29;20055;-76
2022/03/18 00:40:05;;;;;;;21.58;9.02;;;5.00;99.90;;;;;;4971274;28;20058;-76
2022/03/18 00:42:34;;;;;;;25.70;8.52;;;5.00;99.90;;;;;;4971247;28;20074;-77
2022/03/18 00:45:01;;;;;;;21.10;10.95;;;5.00;99.90;;;;;;4973864;28;20059;-77
2022/03/18 00:52:57;;;;;;;25.60;9.25;;;5.10;99.90;;;;;;4973867;28;20050;-76
2022/03/18 00:55:25;;;;;;;25.48;8.48;;;5.20;99.90;;;;;;4974521;28;20522;-76
2022/03/18 00:57:55;;;;;;;25.10;8.43;;;5.20;99.90;;;;;;4976274;28;20073;-79
2022/03/18 01:00:21;;;;;;;24.02;9.80;;;5.20;99.90;;;;;;4975108;28;20086;-75
2022/03/18 01:02:47;;;;;;;25.88;8.82;;;5.20;99.90;;;;;;4977958;28;20043;-75
2022/03/18 01:05:12;;;;;;;21.75;10.05;;;5.30;99.90;;;;;;4979380;28;20060;-75
2022/03/18 01:07:38;;;;;;;25.40;10.15;;;5.30;99.90;;;;;;4976807;28;20043;-75
2022/03/18 01:10:04;;;;;;;24.42;10.80;;;5.30;99.90;;;;;;4974084;28;20078;-75
2022/03/18 01:12:30;;;;;;;29.95;11.07;;;5.30;99.90;;;;;;4973656;28;20078;-75
2022/03/18 01:14:56;;;;;;;25.38;11.27;;;5.30;99.90;;;;;;4957033;28;20059;-75
2022/03/18 01:17:22;;;;;;;27.17;9.88;;;5.30;99.90;;;;;;4958172;28;20047;-75
2022/03/18 01:19:49;;;;;;;28.58;10.13;;;5.30;99.90;;;;;;4974027;28;20406;-76
2022/03/18 01:22:15;;;;;;;28.75;11.25;;;5.30;99.90;;;;;;4957695;28;20078;-75
2022/03/18 01:24:42;;;;;;;25.42;9.88;;;5.30;99.90;;;;;;4973857;28;20133;-75
2022/03/18 01:27:08;;;;;;;27.17;10.05;;;5.30;99.90;;;;;;4973719;28;20091;-77
2022/03/18 01:29:35;;;;;;;24.70;10.02;;;5.20;99.90;;;;;;4957777;28;20514;-76
2022/03/18 01:32:01;;;;;;;21.42;8.82;;;5.20;99.90;;;;;;4973474;28;20090;-75
2022/03/18 01:34:27;;;;;;;23.30;9.68;;;5.20;99.90;;;;;;4974894;28;20062;-75
2022/03/18 01:36:53;;;;;;;22.10;9.27;;;5.20;99.90;;;;;;4974040;28;20197;-76
2022/03/18 01:39:18;;;;;;;25.67;9.80;;;5.10;99.90;;;;;;4973766;28;20108;-76
2022/03/18 01:41:44;;;;;;;27.20;9.38;;;5.10;99.90;;;;;;4973237;28;20050;-75
2022/03/18 01:44:12;;;;;;;28.42;10.02;;;5.10;99.90;;;;;;4963025;28;20101;-76
2022/03/18 01:46:38;;;;;;;22.13;9.60;;;5.10;99.90;;;;;;4996121;28;20050;-75
2022/03/18 01:49:05;;;;;;;31.80;11.23;;;5.10;99.90;;;;;;4998269;28;20060;-76
2022/03/18 01:51:32;;;;;;;21.85;9.10;;;5.10;99.90;;;;;;5019791;28;20065;-76
2022/03/18 01:57:11;;;;;;;28.23;10.23;;;5.20;99.90;;;;;;4952728;29;20606;-77
2022/03/18 01:59:38;;;;;;;23.52;9.00;;;5.20;99.90;;;;;;4936075;29;20050;-76
2022/03/18 02:02:04;;;;;;;20.83;8.43;;;5.30;99.90;;;;;;4919169;29;20048;-76
2022/03/18 02:04:35;;;;;;;24.33;8.60;;;5.30;99.90;;;;;;4901486;29;20056;-76
2022/03/18 02:07:02;;;;;;;18.17;8.38;;;5.30;99.90;;;;;;4917617;29;20091;-76
2022/03/18 02:09:35;;;;;;;22.80;8.18;;;5.40;99.90;;;;;;4901901;29;20052;-76
2022/03/18 02:12:02;;;;;;;20.33;7.82;;;5.40;99.90;;;;;;4881129;29;20048;-76
2022/03/18 02:14:47;;;;;;;18.73;7.25;;;5.40;99.90;;;;;;4867730;29;20053;-76
2022/03/18 02:17:18;;;;;;;17.27;7.50;;;5.50;99.90;;;;;;4864800;29;20052;-76
2022/03/18 02:19:45;;;;;;;18.20;7.63;;;5.50;99.90;;;;;;4879537;29;20056;-75
2022/03/18 02:22:19;;;;;;;24.02;7.88;;;5.50;99.90;;;;;;4895431;29;20113;-76
2022/03/18 02:24:49;;;;;;;17.08;7.60;;;5.50;99.90;;;;;;4879897;29;20056;-77
2022/03/18 02:27:15;;;;;;;16.67;7.50;;;5.50;99.90;;;;;;4883497;29;20064;-76
2022/03/18 02:29:41;;;;;;;19.85;7.93;;;5.60;99.90;;;;;;4882661;29;20153;-76
2022/03/18 02:32:18;;;;;;;19.05;8.75;;;5.50;99.90;;;;;;4879390;29;20580;-75
2022/03/18 02:34:46;;;;;;;18.73;7.28;;;5.50;99.90;;;;;;4895098;29;20056;-76
2022/03/18 02:37:15;;;;;;;18.20;8.48;;;5.60;99.90;;;;;;4879309;29;20139;-75
2022/03/18 02:39:41;;;;;;;24.48;8.20;;;5.50;99.90;;;;;;4879360;29;20417;-75
2022/03/18 02:42:08;;;;;;;19.40;9.13;;;5.50;99.90;;;;;;4879347;29;20060;-76
2022/03/18 02:44:34;;;;;;;19.20;7.40;;;5.50;99.90;;;;;;4894934;29;20095;-77
2022/03/18 02:47:00;;;;;;;16.83;7.63;;;5.50;99.90;;;;;;4879405;29;20056;-78
2022/03/18 02:49:26;;;;;;;17.35;7.63;;;5.50;99.90;;;;;;4882450;29;20051;-75
2022/03/18 02:51:52;;;;;;;36.08;9.63;;;5.50;99.90;;;;;;4901150;29;20059;-77
2022/03/18 02:54:18;;;;;;;18.13;7.90;;;5.60;99.90;;;;;;4916689;29;20059;-75
2022/03/18 02:56:49;;;;;;;20.50;9.50;;;5.60;99.90;;;;;;4901624;29;20051;-76
2022/03/18 02:59:15;;;;;;;24.88;8.25;;;5.60;99.90;;;;;;4920667;28;20052;-75
2022/03/18 03:01:44;;;;;;;21.02;9.05;;;5.60;99.90;;;;;;4988450;28;20056;-76
2022/03/18 03:04:13;;;;;;;15.40;7.45;;;5.60;99.90;;;;;;4994862;28;20058;-76
2022/03/18 03:09:23;;;;;;;13.52;7.53;;;5.60;99.90;;;;;;4981500;28;20054;-75
2022/03/18 03:11:49;;;;;;;18.67;8.32;;;5.70;99.90;;;;;;4998658;28;20056;-76
2022/03/18 03:14:16;;;;;;;20.33;7.70;;;5.70;99.90;;;;;;5017787;28;20054;-75
2022/03/18 03:16:42;;;;;;;17.30;7.57;;;5.70;99.90;;;;;;4978546;28;20088;-75
2022/03/18 03:19:31;;;;;;;18.42;7.97;;;5.70;99.90;;;;;;4994528;28;20089;-76
2022/03/18 03:21:57;;;;;;;15.93;8.23;;;5.70;99.90;;;;;;4968622;28;20102;-75
2022/03/18 03:24:23;;;;;;;17.70;8.57;;;5.70;99.90;;;;;;4955195;28;20043;-76
2022/03/18 03:26:49;;;;;;;13.85;8.63;;;5.70;99.90;;;;;;4954967;28;20050;-76
2022/03/18 03:29:15;;;;;;;19.70;9.20;;;5.80;99.90;;;;;;4938983;28;20600;-76
2022/03/18 03:31:41;;;;;;;17.02;8.68;;;5.80;99.90;;;;;;4954794;28;20067;-76
2022/03/18 03:34:06;;;;;;;19.63;8.52;;;5.80;99.90;;;;;;4954123;28;20106;-77
2022/03/18 03:36:35;;;;;;;17.52;8.88;;;5.80;99.90;;;;;;4954225;28;20515;-76
2022/03/18 03:39:01;;;;;;;22.25;10.00;;;5.80;99.90;;;;;;4938386;28;20051;-77
2022/03/18 03:41:27;;;;;;;20.27;8.80;;;5.80;99.90;;;;;;4954197;28;20133;-75
2022/03/18 03:43:53;;;;;;;19.15;8.77;;;5.90;99.90;;;;;;4954260;28;20138;-76
2022/03/18 03:46:21;;;;;;;14.68;7.90;;;5.90;99.90;;;;;;4937852;28;20058;-75
2022/03/18 03:48:46;;;;;;;14.90;8.38;;;5.90;99.90;;;;;;4922869;28;20141;-75
2022/03/18 03:51:12;;;;;;;23.55;8.15;;;5.90;99.90;;;;;;4938890;28;20142;-75
2022/03/18 03:53:38;;;;;;;23.98;10.35;;;5.90;99.90;;;;;;5003607;28;20520;-76
2022/03/18 03:56:04;;;;;;;19.42;8.68;;;5.90;99.90;;;;;;5003996;28;20066;-79
2022/03/18 03:58:33;;;;;;;27.38;8.90;;;5.90;99.90;;;;;;4994240;28;20053;-76
2022/03/18 04:00:59;;;;;;;27.33;10.60;;;5.90;99.90;;;;;;4986681;28;20138;-76
2022/03/18 04:03:32;;;;;;;18.42;8.98;;;5.90;99.90;;;;;;4974702;28;20061;-75
2022/03/18 04:05:58;;;;;;;19.20;8.93;;;6.00;99.90;;;;;;4958211;28;20050;-75
2022/03/18 04:08:24;;;;;;;17.60;8.88;;;6.00;99.90;;;;;;4973960;28;20058;-75
2022/03/18 04:10:50;;;;;;;19.40;9.15;;;6.00;99.90;;;;;;4942726;28;20129;-76
2022/03/18 04:13:16;;;;;;;22.88;11.00;;;6.00;99.90;;;;;;4974846;28;20133;-77
2022/03/18 04:15:41;;;;;;;19.80;9.90;;;6.00;99.90;;;;;;4991971;28;20520;-77
2022/03/18 04:18:07;;;;;;;19.52;9.55;;;6.00;99.90;;;;;;4974541;28;20098;-76
2022/03/18 04:20:35;;;;;;;22.13;11.02;;;6.00;99.90;;;;;;4974570;28;20066;-76
2022/03/18 04:23:02;;;;;;;25.15;11.07;;;6.10;99.90;;;;;;4957707;28;20061;-75
2022/03/18 04:25:32;;;;;;;23.08;10.50;;;6.10;99.90;;;;;;4961643;28;20569;-75
2022/03/18 04:27:58;;;;;;;15.02;10.13;;;6.10;99.90;;;;;;4977579;28;20149;-75
2022/03/18 04:30:27;;;;;;;23.10;12.73;;;6.10;99.90;;;;;;4995282;28;20138;-75
2022/03/18 04:32:53;;;;;;;24.65;10.70;;;6.10;99.90;;;;;;4977861;28;20136;-76
2022/03/18 04:35:19;;;;;;;24.65;10.85;;;6.10;99.90;;;;;;4978234;28;20058;-76
2022/03/18 04:37:46;;;;;;;23.20;11.77;;;6.10;99.90;;;;;;4962072;28;20051;-77
2022/03/18 04:40:13;;;;;;;23.63;11.15;;;6.00;99.90;;;;;;4986843;28;20114;-76
2022/03/18 04:42:40;;;;;;;20.95;10.60;;;6.00;99.90;;;;;;4981502;28;20054;-76
2022/03/18 04:45:16;;;;;;;25.52;13.00;;;6.00;99.90;;;;;;4995142;28;20334;-76
2022/03/18 04:47:42;;;;;;;24.33;12.15;;;6.00;99.90;;;;;;4977733;28;20125;-76
2022/03/18 04:50:09;;;;;;;24.13;11.55;;;5.90;99.90;;;;;;4977840;28;20136;-76
2022/03/18 04:52:35;;;;;;;30.33;12.75;;;5.90;99.90;;;;;;4961581;28;20406;-75
2022/03/18 04:55:10;;;;;;;28.70;14.20;;;5.90;99.90;;;;;;4962392;28;20073;-76
2022/03/18 04:57:36;;;;;;;32.45;14.25;;;5.90;99.90;;;;;;4977315;28;20050;-76
2022/03/18 05:00:03;;;;;;;22.85;12.40;;;5.90;99.90;;;;;;4961441;28;20136;-76
2022/03/18 05:02:29;;;;;;;23.52;13.18;;;5.90;99.90;;;;;;4964266;28;20050;-75
2022/03/18 05:04:54;;;;;;;25.77;12.82;;;5.90;99.90;;;;;;4996899;28;20433;-75
2022/03/18 05:07:38;;;;;;;26.88;13.43;;;5.90;99.90;;;;;;4996573;28;20053;-76
2022/03/18 05:10:07;;;;;;;29.17;14.20;;;5.90;99.90;;;;;;4980932;28;20058;-75
2022/03/18 05:12:32;;;;;;;28.33;13.85;;;5.80;99.90;;;;;;4980445;28;20057;-76
2022/03/18 05:14:58;;;;;;;27.65;14.55;;;5.80;99.90;;;;;;4996794;28;20050;-75
2022/03/18 05:17:27;;;;;;;23.00;13.88;;;5.80;99.90;;;;;;5014377;28;20481;-76
2022/03/18 05:19:53;;;;;;;27.77;13.80;;;5.70;99.90;;;;;;4997759;28;20046;-76
2022/03/18 05:22:18;;;;;;;25.98;13.50;;;5.70;99.90;;;;;;5002539;28;20486;-76
2022/03/18 05:24:47;;;;;;;29.55;14.15;;;5.60;99.90;;;;;;4999528;28;20056;-76
2022/03/18 05:27:13;;;;;;;22.40;13.20;;;5.60;99.90;;;;;;5014203;28;20073;-75
2022/03/18 05:29:38;;;;;;;26.83;15.10;;;5.50;99.90;;;;;;4996344;28;20477;-76
2022/03/18 05:32:07;;;;;;;31.15;13.88;;;5.50;99.90;;;;;;4996137;28;20068;-76
2022/03/18 05:34:36;;;;;;;24.52;13.93;;;5.40;99.90;;;;;;4995475;28;20054;-76
2022/03/18 05:37:07;;;;;;;33.25;15.75;;;5.40;99.90;;;;;;4979878;28;20050;-75
2022/03/18 05:39:37;;;;;;;26.00;14.65;;;5.30;99.90;;;;;;4996069;28;20485;-75
2022/03/18 05:42:04;;;;;;;24.30;12.43;;;5.30;99.90;;;;;;4996307;28;20077;-76
2022/03/18 05:44:34;;;;;;;27.05;14.57;;;5.20;99.90;;;;;;4979696;28;20060;-76
2022/03/18 05:47:00;;;;;;;26.95;15.90;;;5.10;99.90;;;;;;4996028;28;20076;-76
2022/03/18 05:49:27;;;;;;;28.77;15.65;;;5.10;99.90;;;;;;4995907;28;20567;-75
2022/03/18 05:51:57;;;;;;;30.73;16.42;;;5.10;99.90;;;;;;5013273;28;20056;-76
2022/03/18 05:54:22;;;;;;;31.40;16.65;;;5.10;99.90;;;;;;4963516;28;20058;-75
2022/03/18 05:56:56;;;;;;;29.73;18.83;;;5.10;99.90;;;;;;4979577;28;20042;-75
2022/03/18 05:59:26;;;;;;;31.75;17.80;;;5.10;99.90;;;;;;4996127;28;20054;-76
2022/03/18 06:01:54;;;;;;;36.17;17.85;;;5.10;99.90;;;;;;4979216;28;20183;-75
2022/03/18 06:04:24;;;;;;;32.25;17.48;;;5.10;99.90;;;;;;5013629;28;20928;-76
2022/03/18 06:06:50;;;;;;;34.78;18.50;;;5.10;99.90;;;;;;4965803;28;20077;-76
2022/03/18 06:12:02;;;;;;;33.83;17.10;;;5.10;99.90;;;;;;4982609;28;20053;-76
2022/03/18 06:14:30;;;;;;;35.95;19.23;;;5.10;99.90;;;;;;4995107;28;20049;-76
2022/03/18 06:17:04;;;;;;;37.92;18.15;;;5.00;99.90;;;;;;4980424;28;20049;-76
2022/03/18 06:19:32;;;;;;;23.65;14.32;;;5.00;99.90;;;;;;4979463;28;20061;-76
2022/03/18 06:21:59;;;;;;;32.22;16.33;;;5.00;99.90;;;;;;4995319;28;20042;-75
2022/03/18 06:24:25;;;;;;;30.95;16.25;;;5.00;99.90;;;;;;4994992;28;20050;-76
2022/03/18 06:26:53;;;;;;;35.88;18.70;;;5.00;99.90;;;;;;4978748;28;20099;-75
2022/03/18 06:29:20;;;;;;;31.58;18.55;;;5.10;99.90;;;;;;4995163;28;20093;-75
2022/03/18 06:31:48;;;;;;;36.20;18.95;;;5.10;99.90;;;;;;4978953;28;20054;-76
2022/03/18 06:34:20;;;;;;;34.42;19.30;;;5.20;99.90;;;;;;4979406;28;20506;-76
2022/03/18 06:36:46;;;;;;;35.60;19.27;;;5.20;99.90;;;;;;4995643;28;20049;-76
2022/03/18 06:39:14;;;;;;;34.35;19.52;;;5.30;99.90;;;;;;4979165;28;20046;-76
2022/03/18 06:41:44;;;;;;;42.63;21.08;;;5.30;99.90;;;;;;4995596;28;20401;-76
2022/03/18 06:44:10;;;;;;;43.22;20.65;;;5.40;99.90;;;;;;4994121;28;20111;-75
2022/03/18 06:46:40;;;;;;;37.95;18.42;;;5.40;99.90;;;;;;4994210;28;20076;-76
2022/03/18 06:49:07;;;;;;;40.15;19.23;;;5.50;99.90;;;;;;4979206;28;20144;-76
2022/03/18 06:51:34;;;;;;;35.80;18.30;;;5.60;99.90;;;;;;4995158;28;20050;-77
2022/03/18 06:54:03;;;;;;;38.85;19.98;;;5.70;99.90;;;;;;4994950;28;20119;-77
2022/03/18 06:56:38;;;;;;;36.60;19.58;;;5.70;99.90;;;;;;5012989;28;20038;-77
2022/03/18 06:59:08;;;;;;;38.13;19.17;;;5.80;99.90;;;;;;4979635;28;20132;-77
2022/03/18 07:01:34;;;;;;;39.28;19.35;;;5.90;99.90;;;;;;4963219;28;20042;-76
2022/03/18 07:04:04;;;;;;;36.65;18.55;;;6.00;99.90;;;;;;4994775;28;20089;-77
2022/03/18 07:06:34;;;;;;;34.88;18.48;;;6.10;99.90;;;;;;4995981;28;20050;-77
2022/03/18 07:09:01;;;;;;;32.67;18.90;;;6.20;99.90;;;;;;5009552;28;20669;-77
2022/03/18 07:11:27;;;;;;;37.55;18.52;;;6.30;99.90;;;;;;4992279;28;20049;-78
2022/03/18 07:13:59;;;;;;;38.95;17.38;;;6.50;99.90;;;;;;5012691;28;20081;-77
2022/03/18 07:19:12;;;;;;;34.20;17.33;;;6.70;99.90;;;;;;5012335;28;20085;-77
2022/03/18 07:21:39;;;;;;;31.70;16.73;;;6.90;99.90;;;;;;4996291;28;20536;-77
2022/03/18 07:24:05;;;;;;;35.85;15.82;;;7.10;99.90;;;;;;5013792;28;20390;-78
2022/03/18 07:26:31;;;;;;;39.03;16.02;;;7.20;99.90;;;;;;4995845;28;20045;-77
2022/03/18 07:28:57;;;;;;;39.25;15.18;;;7.30;99.90;;;;;;4979427;28;20053;-78
2022/03/18 07:31:23;;;;;;;31.35;14.73;;;7.40;99.90;;;;;;4995576;28;20050;-77
2022/03/18 07:34:15;;;;;;;32.08;14.95;;;7.60;99.90;;;;;;4994463;28;20046;-77
2022/03/18 07:36:45;;;;;;;27.60;13.70;;;7.70;99.90;;;;;;4943400;28;20047;-78
2022/03/18 07:39:11;;;;;;;44.58;17.77;;;7.80;99.90;;;;;;4939557;28;20090;-77
2022/03/18 07:41:37;;;;;;;30.95;14.77;;;7.90;99.90;;;;;;4955581;28;20057;-78
2022/03/18 07:44:04;;;;;;;41.75;14.93;;;7.90;99.90;;;;;;4939159;28;20053;-78
2022/03/18 07:46:30;;;;;;;31.80;15.13;;;8.10;99.90;;;;;;4938663;28;20122;-79
2022/03/18 07:48:56;;;;;;;35.47;15.05;;;8.10;99.90;;;;;;4940329;28;20145;-78
2022/03/18 07:51:25;;;;;;;36.53;15.77;;;8.30;99.90;;;;;;4970958;28;20042;-77
2022/03/18 07:53:55;;;;;;;34.25;13.00;;;8.50;99.90;;;;;;4940492;28;20061;-78
2022/03/18 07:56:22;;;;;;;35.03;13.23;;;8.60;99.90;;;;;;4955846;28;20061;-78
2022/03/18 07:58:48;;;;;;;37.05;9.27;;;8.80;99.90;;;;;;4957473;28;20051;-78
2022/03/18 08:01:14;;;;;;;41.22;8.95;;;8.90;99.90;;;;;;4972065;28;20105;-79
2022/03/18 08:03:49;;;;;;;35.80;8.85;;;9.00;99.90;;;;;;4974873;28;20047;-78
2022/03/18 08:06:15;;;;;;;24.35;7.47;;;9.20;99.90;;;;;;4958296;28;20125;-78
2022/03/18 08:08:43;;;;;;;29.98;8.13;;;9.30;99.90;;;;;;5013799;28;20052;-78
2022/03/18 08:11:10;;;;;;;40.42;9.55;;;9.40;99.90;;;;;;5016888;28;20049;-79
2022/03/18 08:13:35;;;;;;;34.13;9.50;;;9.50;99.90;;;;;;4999283;28;20520;-78
2022/03/18 08:16:01;;;;;;;66.03;11.43;;;9.60;99.90;;;;;;4998715;28;20050;-76
2022/03/18 08:18:27;;;;;;;31.05;7.00;;;9.60;99.90;;;;;;4981998;28;20116;-77
2022/03/18 08:21:14;;;;;;;35.67;8.32;;;9.70;99.90;;;;;;4996943;28;20057;-77
2022/03/18 08:23:40;;;;;;;28.48;7.55;;;9.80;99.90;;;;;;4998379;28;20054;-78
2022/03/18 08:26:05;;;;;;;33.22;7.25;;;9.90;99.90;;;;;;4965449;28;20100;-78
2022/03/18 08:28:32;;;;;;;30.98;7.68;;;9.90;99.90;;;;;;4981788;28;20054;-78
2022/03/18 08:31:00;;;;;;;23.38;6.60;;;10.00;99.90;;;;;;4998926;28;20117;-78
2022/03/18 08:33:29;;;;;;;28.35;6.90;;;10.20;99.90;;;;;;4998320;28;20046;-78
2022/03/18 08:35:57;;;;;;;21.58;6.10;;;10.30;99.90;;;;;;4998405;28;20152;-79
2022/03/18 08:38:22;;;;;;;29.05;10.13;;;10.40;99.90;;;;;;4982081;28;20452;-77
2022/03/18 08:40:48;;;;;;;21.40;6.25;;;10.50;99.90;;;;;;4997136;28;20107;-78
2022/03/18 08:43:17;;;;;;;19.70;5.65;;;10.60;99.90;;;;;;4982418;28;20042;-79
2022/03/18 08:45:43;;;;;;;20.60;6.10;;;10.70;99.90;;;;;;5014867;28;20081;-78
2022/03/18 08:48:09;;;;;;;16.92;4.95;;;10.90;99.90;;;;;;4981613;28;20394;-79
2022/03/18 08:50:48;;;;;;;20.90;4.93;;;11.00;99.90;;;;;;4985885;28;20077;-79
2022/03/18 08:53:15;;;;;;;26.50;5.63;;;11.10;99.90;;;;;;4999981;28;20046;-78
2022/03/18 08:55:41;;;;;;;27.60;6.22;;;11.20;99.90;;;;;;5000246;28;20119;-79
2022/03/18 08:58:08;;;;;;;25.15;4.82;;;11.30;99.90;;;;;;4998159;28;20054;-78
2022/03/18 09:00:34;;;;;;;21.65;4.88;;;11.40;99.90;;;;;;4996953;28;20045;-79
2022/03/18 09:03:00;;;;;;;21.42;5.57;;;11.50;99.90;;;;;;4980480;28;20111;-78
2022/03/18 09:05:26;;;;;;;22.15;5.43;;;11.50;99.90;;;;;;5015209;28;20120;-78
2022/03/18 09:07:52;;;;;;;20.92;5.60;;;11.50;99.90;;;;;;4996213;28;20472;-77
2022/03/18 09:10:20;;;;;;;28.40;4.85;;;11.60;99.90;;;;;;5013921;28;20049;-79
2022/03/18 09:12:48;;;;;;;25.15;5.68;;;11.60;99.90;;;;;;4996608;28;20061;-79
2022/03/18 09:15:15;;;;;;;23.50;5.88;;;11.70;99.90;;;;;;4948933;28;20080;-78
2022/03/18 09:17:41;;;;;;;26.80;4.28;;;11.80;99.90;;;;;;4965068;28;20528;-78
2022/03/18 09:20:08;;;;;;;17.77;4.68;;;11.80;99.90;;;;;;4997340;28;20066;-79
2022/03/18 09:22:34;;;;;;;17.77;4.05;;;11.90;99.90;;;;;;4996550;28;20085;-78
2022/03/18 09:25:09;;;;;;;27.55;5.45;;;11.90;99.90;;;;;;4997184;28;20092;-78
2022/03/18 09:27:38;;;;;;;16.38;4.95;;;12.00;99.90;;;;;;4996887;28;20054;-79
2022/03/18 09:30:12;;;;;;;26.35;5.30;;;12.20;99.90;;;;;;4950818;28;20057;-78
2022/03/18 09:32:43;;;;;;;21.25;4.57;;;12.20;99.90;;;;;;4980549;28;20132;-78
2022/03/18 09:35:11;;;;;;;26.42;4.32;;;12.50;99.90;;;;;;4980087;28;20424;-79
2022/03/18 09:37:36;;;;;;;23.23;5.70;;;12.50;99.90;;;;;;4996786;28;20042;-78
2022/03/18 09:40:08;;;;;;;17.75;3.90;;;12.60;99.90;;;;;;4981086;28;20050;-79
2022/03/18 09:42:35;;;;;;;23.23;5.45;;;12.80;99.90;;;;;;4999101;28;20460;-79
2022/03/18 09:45:01;;;;;;;21.08;4.47;;;12.90;99.90;;;;;;4995945;28;20090;-79
2022/03/18 09:47:28;;;;;;;21.08;4.45;;;13.00;99.90;;;;;;4977446;28;20050;-79
2022/03/18 09:49:55;;;;;;;22.05;4.70;;;13.10;99.90;;;;;;4993981;28;20054;-78
2022/03/18 09:52:24;;;;;;;16.13;3.85;;;13.20;99.90;;;;;;4993259;28;20078;-79
2022/03/18 09:54:51;;;;;;;20.30;4.22;;;13.20;99.90;;;;;;4976612;28;20069;-79
2022/03/18 09:57:17;;;;;;;24.50;4.47;;;13.40;99.90;;;;;;4992471;28;20390;-79
2022/03/18 09:59:45;;;;;;;20.48;4.45;;;13.50;99.90;;;;;;4992534;28;20057;-79
2022/03/18 10:02:29;;;;;;;18.15;3.70;;;13.50;99.90;;;;;;4975511;28;20465;-79
2022/03/18 10:05:03;;;;;;;22.70;3.88;;;13.80;99.90;;;;;;4969735;28;20477;-79
2022/03/18 10:07:29;;;;;;;17.15;5.35;;;13.90;99.90;;;;;;4942615;28;20057;-80
2022/03/18 10:10:14;;;;;;;17.50;3.47;;;13.90;99.90;;;;;;4974809;28;20059;-80
2022/03/18 10:12:57;;;;;;;20.27;3.67;;;14.10;99.90;;;;;;4957429;28;20061;-79
2022/03/18 10:15:28;;;;;;;21.63;4.00;;;14.10;99.90;;;;;;4927341;28;20187;-78
2022/03/18 10:17:59;;;;;;;26.40;5.07;;;14.30;99.90;;;;;;4957506;28;20050;-80
2022/03/18 10:20:38;;;;;;;26.58;4.70;;;14.40;99.90;;;;;;4971978;28;20058;-79
2022/03/18 10:23:12;;;;;;;19.50;4.00;;;14.70;99.90;;;;;;4956614;28;20109;-79
2022/03/18 10:25:52;;;;;;;16.00;3.55;;;14.70;99.90;;;;;;4973092;28;20055;-80
2022/03/18 10:28:58;;;;;;;19.98;4.00;;;14.70;99.90;;;;;;4957059;28;20089;-79
2022/03/18 10:31:59;;;;;;;19.55;4.38;;;14.70;99.90;;;;;;4907381;29;20459;-79
2022/03/18 10:37:25;;;;;;;19.30;4.10;;;14.60;99.90;;;;;;4918219;29;20070;-79
2022/03/18 10:39:59;;;;;;;20.50;3.45;;;14.60;99.90;;;;;;4903689;29;20064;-79
2022/03/18 10:42:25;;;;;;;16.53;4.00;;;14.50;99.90;;;;;;4920648;29;20071;-79
2022/03/18 10:45:00;;;;;;;25.25;5.18;;;14.70;99.90;;;;;;4922873;29;20064;-79
2022/03/18 10:47:39;;;;;;;25.80;4.40;;;14.70;99.90;;;;;;4942234;29;20092;-81
2022/03/18 10:50:13;;;;;;;18.38;4.07;;;14.90;99.90;;;;;;4919475;29;20083;-79
2022/03/18 10:53:03;;;;;;;21.05;3.58;;;15.20;99.90;;;;;;4917360;29;20094;-80
2022/03/18 10:55:43;;;;;;;18.13;3.97;;;15.20;99.90;;;;;;4917317;29;20051;-80
2022/03/18 10:58:17;;;;;;;20.10;3.63;;;15.30;99.90;;;;;;4917912;29;20574;-79
2022/03/18 11:00:43;;;;;;;;;;;15.40;99.90;;;;;;4917889;29;20058;-80
2022/03/18 11:03:11;;;;;;;16.90;3.25;;;16.00;99.90;;;;;;4917690;29;19922;-80
2022/03/18 11:05:52;;;;;;;19.63;3.88;;;16.10;99.90;;;;;;4917134;29;20527;-79
2022/03/18 11:08:51;;;;;;;26.90;4.28;;;16.50;99.90;;;;;;4939289;29;20490;-80
2022/03/18 11:11:27;;;;;;;20.83;3.65;;;16.70;99.90;;;;;;4952683;29;20423;-80
2022/03/18 11:14:22;;;;;;;17.58;3.65;;;17.10;99.90;;;;;;4921926;29;20055;-80
2022/03/18 11:16:48;;;;;;;19.00;3.88;;;17.60;99.40;;;;;;4953044;29;20055;-80
2022/03/18 11:19:16;;;;;;;24.15;4.97;;;18.10;99.50;;;;;;4935985;29;20055;-80
2022/03/18 11:21:46;;;;;;;17.40;3.30;;;18.00;99.00;;;;;;4937089;29;20083;-80
2022/03/18 11:24:22;;;;;;;19.25;4.05;;;18.20;98.30;;;;;;4952460;28;20055;-79
2022/03/18 11:26:50;;;;;;;15.68;3.20;;;18.30;96.80;;;;;;4936474;29;20047;-80
2022/03/18 11:29:24;;;;;;;22.98;3.80;;;18.60;97.10;;;;;;4952736;29;20051;-79
2022/03/18 11:32:15;;;;;;;16.33;3.88;;;18.70;95.30;;;;;;4953518;28;20047;-80
2022/03/18 11:34:50;;;;;;;18.75;3.88;;;19.00;93.70;;;;;;4956448;29;20142;-79
2022/03/18 11:37:20;;;;;;;22.08;3.92;;;18.50;94.90;;;;;;4956184;29;20074;-79
2022/03/18 11:39:47;;;;;;;19.00;4.90;;;18.70;95.20;;;;;;4923373;29;20087;-79
2022/03/18 11:42:50;;;;;;;14.80;3.35;;;18.60;94.50;;;;;;4942982;28;20051;-79
2022/03/18 11:45:42;;;;;;;17.20;3.63;;;18.20;93.60;;;;;;4939529;28;20142;-80
2022/03/18 11:48:36;;;;;;;18.38;4.00;;;18.30;94.70;;;;;;4955734;29;20418;-81
2022/03/18 11:51:25;;;;;;;15.35;3.78;;;19.00;94.90;;;;;;4955725;29;20528;-80
2022/03/18 11:54:23;;;;;;;18.98;3.50;;;19.20;93.30;;;;;;4955457;28;20103;-79
2022/03/18 11:56:54;;;;;;;18.20;3.28;;;19.60;93.50;;;;;;4939732;29;20055;-81
2022/03/18 11:59:28;;;;;;;15.98;3.58;;;20.30;92.40;;;;;;4955500;28;20059;-81
2022/03/18 12:02:12;;;;;;;24.45;5.35;;;20.30;90.30;;;;;;4971879;28;20059;-80
2022/03/18 12:04:46;;;;;;;22.95;4.20;;;21.20;85.00;;;;;;4961835;28;20101;-81
2022/03/18 12:07:51;;;;;;;13.40;3.40;;;21.60;85.40;;;;;;4966999;28;20081;-80
2022/03/18 12:10:54;;;;;;;13.43;3.25;;;22.10;77.70;;;;;;4956690;28;20067;-80
2022/03/18 12:13:19;;;;;;;16.10;3.20;;;22.80;63.00;;;;;;4942127;28;20055;-80
2022/03/18 12:15:46;;;;;;;16.77;3.35;;;22.90;66.40;;;;;;4966489;28;20101;-80
2022/03/18 12:18:13;;;;;;;26.00;4.55;;;23.30;61.50;;;;;;4995103;28;20089;-80
2022/03/18 12:20:42;;;;;;;17.00;3.10;;;23.60;58.30;;;;;;4978476;28;20097;-80
2022/03/18 12:23:10;;;;;;;14.63;3.47;;;23.70;57.10;;;;;;4979146;28;20387;-80
2022/03/18 12:25:36;;;;;;;22.85;4.90;;;23.80;56.50;;;;;;4979181;28;20050;-79
2022/03/18 12:28:06;;;;;;;18.05;3.72;;;24.10;54.10;;;;;;4994848;28;20061;-80
2022/03/18 12:30:32;;;;;;;16.27;3.40;;;24.10;53.10;;;;;;4962498;28;20062;-80
2022/03/18 12:33:04;;;;;;;17.25;3.20;;;24.90;52.10;;;;;;4994971;28;20137;-81
2022/03/18 12:35:35;;;;;;;14.82;3.90;;;25.30;50.70;;;;;;4995888;28;20058;-81
2022/03/18 12:38:05;;;;;;;20.23;3.40;;;25.70;48.80;;;;;;4995745;28;20057;-80
2022/03/18 12:40:31;;;;;;;23.67;4.25;;;25.90;48.40;;;;;;4994385;28;20054;-81
2022/03/18 12:42:58;;;;;;;20.33;3.85;;;26.10;47.30;;;;;;4994667;28;20497;-79
2022/03/18 12:45:33;;;;;;;17.00;4.65;;;26.20;45.80;;;;;;4990881;28;20058;-80
2022/03/18 12:48:05;;;;;;;14.43;4.28;;;26.20;46.00;;;;;;4978112;28;20050;-80
2022/03/18 12:50:39;;;;;;;17.50;4.35;;;26.60;45.60;;;;;;4978055;28;20062;-79
2022/03/18 12:53:21;;;;;;;16.20;4.05;;;26.60;44.10;;;;;;4954653;29;20054;-79
2022/03/18 12:55:53;;;;;;;25.83;4.75;;;26.50;44.30;;;;;;4954768;29;20055;-80
2022/03/18 12:58:21;;;;;;;19.25;3.70;;;27.00;43.60;;;;;;4922236;29;20043;-80
2022/03/18 13:01:02;;;;;;;17.13;3.65;;;27.00;43.30;;;;;;4916765;29;20150;-80
2022/03/18 13:03:30;;;;;;;13.55;3.40;;;26.70;42.50;;;;;;4934952;29;20093;-80
2022/03/18 13:06:18;;;;;;;19.02;4.25;;;26.50;43.50;;;;;;4919190;29;20043;-80
2022/03/18 13:08:51;;;;;;;19.20;4.53;;;26.60;43.60;;;;;;4918980;29;20059;-79
2022/03/18 13:11:17;;;;;;;18.17;4.55;;;26.80;42.90;;;;;;4919230;29;20095;-80
2022/03/18 13:13:46;;;;;;;21.85;4.68;;;27.10;42.70;;;;;;4934177;29;20051;-80